createdAt,value
2017-10-30T00:02:19.831Z,7.00
2017-10-30T00:04:47.425Z,7.00
2017-10-30T00:07:15.002Z,7.00
2017-10-30T00:09:42.665Z,7.00
2017-10-30T00:12:10.212Z,7.00
2017-10-30T00:14:37.858Z,7.00
2017-10-30T00:17:05.417Z,6.90
2017-10-30T00:19:33.087Z,6.90
2017-10-30T00:22:00.727Z,6.90
2017-10-30T00:24:28.311Z,6.90
2017-10-30T00:26:55.888Z,6.90
2017-10-30T00:29:23.502Z,6.90
2017-10-30T00:31:51.096Z,6.90
2017-10-30T00:34:18.752Z,6.90
2017-10-30T00:36:46.335Z,6.90
2017-10-30T00:39:13.977Z,6.90
2017-10-30T00:41:41.547Z,6.90
2017-10-30T00:44:09.215Z,6.90
2017-10-30T00:46:36.781Z,6.90
2017-10-30T00:49:04.346Z,6.90
2017-10-30T00:51:31.897Z,6.90
2017-10-30T00:53:59.525Z,6.90
2017-10-30T00:56:27.275Z,6.90
2017-10-30T00:58:54.847Z,6.90
2017-10-30T01:01:22.822Z,6.90
2017-10-30T01:03:50.466Z,6.90
2017-10-30T01:06:18.055Z,6.90
2017-10-30T01:08:45.675Z,6.90
2017-10-30T01:11:14.071Z,6.90
2017-10-30T01:13:41.914Z,6.90
2017-10-30T01:16:09.521Z,6.90
2017-10-30T01:18:37.915Z,6.90
2017-10-30T01:21:06.397Z,6.90
2017-10-30T01:23:33.941Z,6.90
2017-10-30T01:26:01.883Z,7.00
2017-10-30T01:28:30.240Z,7.00
2017-10-30T01:30:58.580Z,7.00
2017-10-30T01:33:26.167Z,6.90
2017-10-30T01:35:53.759Z,6.90
2017-10-30T01:38:21.711Z,6.90
2017-10-30T01:40:49.295Z,7.00
2017-10-30T01:43:17.670Z,7.00
2017-10-30T01:45:46.146Z,7.00
2017-10-30T01:48:14.479Z,7.00
2017-10-30T01:50:42.318Z,7.00
2017-10-30T01:53:09.887Z,7.10
2017-10-30T01:55:37.468Z,7.10
2017-10-30T01:58:05.071Z,7.10
2017-10-30T02:00:32.673Z,7.20
2017-10-30T02:03:00.646Z,7.20
2017-10-30T02:05:28.299Z,7.20
2017-10-30T02:07:55.874Z,7.20
2017-10-30T02:10:23.470Z,7.30
2017-10-30T02:12:51.026Z,7.30
2017-10-30T02:15:18.958Z,7.30
2017-10-30T02:17:46.538Z,7.30
2017-10-30T02:20:14.104Z,7.40
2017-10-30T02:22:41.719Z,7.40
2017-10-30T02:25:09.275Z,7.40
2017-10-30T02:27:37.211Z,7.40
2017-10-30T02:30:04.767Z,7.40
2017-10-30T02:32:32.318Z,7.40
2017-10-30T02:34:59.915Z,7.60
2017-10-30T02:37:27.523Z,7.60
2017-10-30T02:39:55.469Z,7.70
2017-10-30T02:42:23.813Z,7.80
2017-10-30T02:44:51.388Z,7.80
2017-10-30T02:47:18.981Z,7.90
2017-10-30T02:49:46.546Z,7.90
2017-10-30T02:52:14.411Z,7.90
2017-10-30T02:54:41.963Z,7.90
2017-10-30T02:57:10.335Z,8.00
2017-10-30T02:59:37.947Z,7.90
2017-10-30T03:02:05.542Z,8.00
2017-10-30T03:04:34.238Z,8.10
2017-10-30T03:07:02.599Z,8.10
2017-10-30T03:09:30.179Z,8.10
2017-10-30T03:11:58.547Z,8.10
2017-10-30T03:14:26.200Z,8.20
2017-10-30T03:16:54.092Z,8.20
2017-10-30T03:19:22.502Z,8.20
2017-10-30T03:21:50.065Z,8.20
2017-10-30T03:24:17.742Z,8.20
2017-10-30T03:26:45.345Z,8.20
2017-10-30T03:29:13.426Z,8.20
2017-10-30T03:31:41.764Z,8.20
2017-10-30T03:34:09.308Z,8.20
2017-10-30T03:36:36.892Z,8.20
2017-10-30T03:39:04.486Z,8.20
2017-10-30T03:41:32.556Z,8.20
2017-10-30T03:44:00.110Z,8.20
2017-10-30T03:46:27.722Z,8.20
2017-10-30T03:48:55.350Z,8.20
2017-10-30T03:51:23.680Z,8.20
2017-10-30T03:53:51.557Z,8.20
2017-10-30T03:56:19.121Z,8.30
2017-10-30T03:58:46.670Z,8.30
2017-10-30T04:01:14.693Z,8.30
2017-10-30T04:03:43.076Z,8.30
2017-10-30T04:06:10.679Z,8.30
2017-10-30T04:08:38.337Z,8.30
2017-10-30T04:11:05.899Z,8.30
2017-10-30T04:13:34.741Z,8.30
2017-10-30T04:16:03.056Z,8.30
2017-10-30T04:18:30.649Z,8.30
2017-10-30T04:20:58.253Z,8.30
2017-10-30T04:23:25.821Z,8.30
2017-10-30T04:25:53.908Z,8.40
2017-10-30T04:28:21.455Z,8.40
2017-10-30T04:30:49.072Z,8.40
2017-10-30T04:33:16.937Z,8.40
2017-10-30T04:35:44.488Z,8.30
2017-10-30T04:38:12.049Z,8.30
2017-10-30T04:40:39.951Z,8.30
2017-10-30T04:43:07.519Z,8.30
2017-10-30T04:45:35.116Z,8.20
2017-10-30T04:48:03.111Z,8.20
2017-10-30T04:50:30.686Z,8.20
2017-10-30T04:52:58.291Z,8.20
2017-10-30T04:55:25.885Z,8.10
2017-10-30T04:57:53.447Z,8.10
2017-10-30T05:00:21.497Z,8.10
2017-10-30T05:02:49.054Z,8.10
2017-10-30T05:05:16.598Z,8.10
2017-10-30T05:07:45.032Z,8.10
2017-10-30T05:10:12.578Z,8.10
2017-10-30T05:12:40.486Z,8.10
2017-10-30T05:15:08.866Z,8.10
2017-10-30T05:17:37.219Z,8.10
2017-10-30T05:20:04.843Z,8.10
2017-10-30T05:22:32.398Z,8.10
2017-10-30T05:25:00.266Z,8.00
2017-10-30T05:27:27.836Z,8.00
2017-10-30T05:29:55.406Z,8.00
2017-10-30T05:32:23.043Z,8.00
2017-10-30T05:34:51.362Z,7.90
2017-10-30T05:37:19.293Z,7.90
2017-10-30T05:39:47.620Z,7.90
2017-10-30T05:42:15.278Z,7.80
2017-10-30T05:44:42.928Z,7.80
2017-10-30T05:47:10.479Z,7.80
2017-10-30T05:49:38.325Z,7.70
2017-10-30T05:52:05.947Z,7.70
2017-10-30T05:54:33.539Z,7.70
2017-10-30T05:57:01.888Z,7.70
2017-10-30T05:59:29.438Z,7.70
2017-10-30T06:01:58.163Z,7.80
2017-10-30T06:04:25.754Z,7.70
2017-10-30T06:06:53.327Z,7.80
2017-10-30T06:09:20.895Z,7.80
2017-10-30T06:11:48.434Z,7.90
2017-10-30T06:14:16.389Z,7.90
2017-10-30T06:16:44.726Z,7.90
2017-10-30T06:19:12.315Z,7.90
2017-10-30T06:21:40.706Z,8.00
2017-10-30T06:24:09.056Z,8.00
2017-10-30T06:26:36.939Z,7.90
2017-10-30T06:29:05.689Z,8.00
2017-10-30T06:31:34.344Z,8.00
2017-10-30T06:34:02.752Z,8.00
2017-10-30T06:36:31.536Z,8.00
2017-10-30T06:39:01.234Z,8.00
2017-10-30T06:41:30.712Z,8.20
2017-10-30T06:43:59.839Z,8.00
2017-10-30T06:46:28.338Z,8.00
2017-10-30T06:48:57.750Z,8.00
2017-10-30T06:51:26.772Z,8.10
2017-10-30T06:53:58.144Z,8.10
2017-10-30T06:56:28.181Z,8.10
2017-10-30T06:58:56.848Z,8.10
2017-10-30T07:01:25.680Z,8.10
2017-10-30T07:03:54.068Z,8.10
2017-10-30T07:06:22.318Z,8.10
2017-10-30T07:08:51.037Z,8.10
2017-10-30T07:11:19.645Z,8.20
2017-10-30T07:13:48.386Z,8.20
2017-10-30T07:16:17.399Z,8.20
2017-10-30T07:18:45.903Z,8.20
2017-10-30T07:21:13.779Z,8.20
2017-10-30T07:23:41.531Z,8.20
2017-10-30T07:26:09.403Z,8.30
2017-10-30T07:28:39.169Z,8.30
2017-10-30T07:31:07.120Z,8.30
2017-10-30T07:33:35.707Z,8.30
2017-10-30T07:36:07.404Z,8.30
2017-10-30T07:38:41.906Z,8.30
2017-10-30T07:41:10.741Z,8.30
2017-10-30T07:43:39.408Z,8.30
2017-10-30T07:46:08.304Z,8.20
2017-10-30T07:48:38.909Z,8.30
2017-10-30T07:51:07.270Z,8.30
2017-10-30T07:53:34.980Z,8.30
2017-10-30T07:56:02.555Z,8.30
2017-10-30T07:58:30.505Z,8.40
2017-10-30T08:00:58.106Z,8.40
2017-10-30T08:03:26.461Z,8.50
2017-10-30T08:05:54.350Z,8.50
2017-10-30T08:26:12.273Z,8.70
2017-10-30T08:42:12.377Z,9.00
2017-10-30T08:44:39.902Z,9.10
2017-10-30T08:47:07.450Z,9.10
2017-10-30T08:49:34.958Z,9.10
2017-10-30T08:52:02.477Z,9.10
2017-10-30T08:54:30.045Z,9.10
2017-10-30T08:56:58.335Z,9.10
2017-10-30T08:59:25.879Z,9.10
2017-10-30T09:01:54.304Z,9.30
2017-10-30T09:04:22.185Z,9.30
2017-10-30T09:06:49.710Z,9.30
2017-10-30T09:09:17.242Z,9.40
2017-10-30T09:11:44.793Z,9.40
2017-10-30T09:14:12.290Z,9.40
2017-10-30T09:16:39.837Z,9.40
2017-10-30T09:19:08.118Z,9.40
2017-10-30T09:21:36.456Z,9.40
2017-10-30T09:24:03.968Z,9.40
2017-10-30T09:26:31.726Z,9.50
2017-10-30T09:28:59.328Z,9.50
2017-10-30T09:31:26.827Z,9.50
2017-10-30T09:33:54.385Z,9.50
2017-10-30T09:36:22.685Z,9.70
2017-10-30T09:38:51.019Z,9.80
2017-10-30T09:41:18.542Z,9.80
2017-10-30T09:43:46.059Z,9.90
2017-10-30T09:46:14.382Z,10.10
2017-10-30T09:48:41.899Z,10.10
2017-10-30T09:51:09.498Z,10.10
2017-10-30T09:53:37.018Z,10.10
2017-10-30T09:56:04.560Z,10.10
2017-10-30T09:58:32.118Z,10.10
2017-10-30T10:00:59.644Z,10.20
2017-10-30T10:03:27.245Z,10.30
2017-10-30T10:05:54.797Z,10.30
2017-10-30T10:08:25.590Z,10.40
2017-10-30T10:10:53.183Z,10.50
2017-10-30T10:13:20.679Z,10.60
2017-10-30T10:15:48.274Z,10.60
2017-10-30T10:18:15.783Z,10.60
2017-10-30T10:20:44.208Z,10.60
2017-10-30T10:23:11.866Z,10.50
2017-10-30T10:25:40.182Z,10.40
2017-10-30T10:28:08.047Z,10.40
2017-10-30T10:30:35.584Z,10.30
2017-10-30T10:33:03.130Z,10.40
2017-10-30T10:35:31.468Z,10.30
2017-10-30T10:37:59.046Z,10.30
2017-10-30T10:40:26.600Z,10.40
2017-10-30T10:42:54.131Z,10.40
2017-10-30T10:45:21.736Z,10.50
2017-10-30T10:47:49.255Z,10.50
2017-10-30T10:50:16.820Z,10.40
2017-10-30T10:52:44.392Z,10.40
2017-10-30T10:55:11.946Z,10.40
2017-10-30T10:57:39.490Z,10.40
2017-10-30T11:00:07.019Z,10.40
2017-10-30T11:02:35.342Z,10.40
2017-10-30T11:05:02.903Z,10.40
2017-10-30T11:07:30.457Z,10.50
2017-10-30T11:09:58.956Z,10.50
2017-10-30T11:12:26.470Z,10.50
2017-10-30T11:14:54.002Z,10.50
2017-10-30T11:17:22.314Z,10.40
2017-10-30T11:19:49.879Z,10.40
2017-10-30T11:22:17.420Z,10.40
2017-10-30T11:24:44.944Z,10.40
2017-10-30T11:27:12.499Z,10.60
2017-10-30T11:29:40.033Z,10.80
2017-10-30T11:32:07.576Z,10.80
2017-10-30T11:34:35.104Z,11.00
2017-10-30T11:37:02.650Z,11.10
2017-10-30T11:39:30.171Z,10.90
2017-10-30T11:41:57.721Z,10.80
2017-10-30T11:44:25.271Z,10.60
2017-10-30T11:46:52.821Z,10.50
2017-10-30T11:49:21.144Z,10.20
2017-10-30T11:51:48.667Z,10.20
2017-10-30T11:54:16.232Z,10.10
2017-10-30T11:56:43.773Z,10.20
2017-10-30T11:59:11.396Z,10.10
2017-10-30T12:01:38.933Z,10.10
2017-10-30T12:04:06.473Z,10.10
2017-10-30T12:06:34.046Z,10.00
2017-10-30T12:09:01.575Z,10.00
2017-10-30T12:11:29.166Z,10.10
2017-10-30T12:13:56.726Z,10.00
2017-10-30T12:16:24.288Z,10.00
2017-10-30T12:18:51.842Z,10.00
2017-10-30T12:21:19.394Z,9.90
2017-10-30T12:23:47.686Z,9.80
2017-10-30T12:26:15.223Z,9.80
2017-10-30T12:28:43.541Z,9.80
2017-10-30T12:31:11.057Z,9.70
2017-10-30T12:33:39.360Z,9.80
2017-10-30T12:36:06.916Z,9.70
2017-10-30T12:38:34.426Z,9.80
2017-10-30T12:41:01.961Z,9.80
2017-10-30T12:43:29.484Z,10.00
2017-10-30T12:45:57.021Z,10.50
2017-10-30T12:48:25.366Z,12.00
2017-10-30T12:50:52.922Z,11.90
2017-10-30T12:53:20.482Z,12.00
2017-10-30T12:55:48.026Z,11.90
2017-10-30T12:58:15.586Z,11.80
2017-10-30T13:00:43.119Z,12.50
2017-10-30T13:03:11.404Z,14.50
2017-10-30T13:05:39.717Z,14.80
2017-10-30T13:08:07.228Z,14.80
2017-10-30T13:10:34.768Z,15.60
2017-10-30T13:13:02.292Z,15.90
2017-10-30T13:15:30.579Z,16.30
2017-10-30T13:17:58.118Z,16.20
2017-10-30T13:20:25.682Z,15.90
2017-10-30T13:22:53.217Z,15.30
2017-10-30T13:25:21.434Z,14.70
2017-10-30T13:27:48.980Z,14.20
2017-10-30T13:30:17.288Z,13.10
2017-10-30T13:32:44.826Z,13.10
2017-10-30T13:35:12.398Z,12.80
2017-10-30T13:37:39.905Z,12.60
2017-10-30T13:40:08.210Z,12.40
2017-10-30T13:42:35.715Z,12.40
2017-10-30T13:45:03.254Z,12.20
2017-10-30T13:47:30.769Z,12.10
2017-10-30T13:49:59.065Z,11.90
2017-10-30T13:52:26.627Z,11.90
2017-10-30T13:54:54.374Z,11.90
2017-10-30T13:57:22.654Z,11.80
2017-10-30T13:59:51.035Z,11.60
2017-10-30T14:02:19.349Z,11.60
2017-10-30T14:04:46.955Z,11.50
2017-10-30T14:07:14.462Z,11.40
2017-10-30T14:09:41.993Z,11.30
2017-10-30T14:12:10.275Z,11.10
2017-10-30T14:14:38.578Z,11.00
2017-10-30T14:17:06.089Z,11.00
2017-10-30T14:19:33.624Z,10.90
2017-10-30T14:22:01.919Z,11.00
2017-10-30T14:24:29.468Z,11.00
2017-10-30T14:26:56.994Z,11.10
2017-10-30T14:29:24.864Z,11.10
2017-10-30T14:31:52.422Z,11.20
2017-10-30T14:34:20.718Z,11.20
2017-10-30T14:36:49.031Z,11.20
2017-10-30T14:39:16.712Z,11.20
2017-10-30T14:41:45.054Z,11.20
2017-10-30T14:44:12.568Z,11.10
2017-10-30T14:46:40.084Z,11.10
2017-10-30T14:49:07.634Z,11.00
2017-10-30T14:51:35.136Z,11.00
2017-10-30T14:54:03.464Z,10.70
2017-10-30T14:56:30.983Z,10.70
2017-10-30T14:58:58.546Z,10.60
2017-10-30T15:01:26.083Z,10.50
2017-10-30T15:03:54.374Z,10.30
2017-10-30T15:06:21.903Z,10.30
2017-10-30T15:08:49.488Z,10.20
2017-10-30T15:11:17.038Z,10.20
2017-10-30T15:13:45.354Z,10.10
2017-10-30T15:16:12.913Z,10.10
2017-10-30T15:18:40.459Z,10.00
2017-10-30T15:21:08.025Z,10.00
2017-10-30T15:23:35.568Z,10.00
2017-10-30T15:26:03.086Z,10.00
2017-10-30T15:28:30.634Z,10.00
2017-10-30T15:30:58.147Z,10.00
2017-10-30T15:33:26.430Z,9.90
2017-10-30T15:35:53.976Z,9.90
2017-10-30T15:38:22.245Z,9.80
2017-10-30T15:40:49.786Z,9.80
2017-10-30T15:43:17.305Z,9.80
2017-10-30T15:45:44.874Z,9.70
2017-10-30T15:48:12.396Z,9.70
2017-10-30T15:50:40.841Z,9.60
2017-10-30T15:53:08.400Z,9.50
2017-10-30T15:55:37.578Z,9.40
2017-10-30T15:58:05.128Z,9.40
2017-10-30T16:00:32.665Z,9.40
2017-10-30T16:03:00.244Z,9.30
2017-10-30T16:05:27.786Z,9.20
2017-10-30T16:07:57.325Z,9.20
2017-10-30T16:10:26.194Z,9.10
2017-10-30T16:12:53.710Z,9.10
2017-10-30T16:15:21.788Z,8.90
2017-10-30T16:17:49.314Z,9.00
2017-10-30T16:20:16.851Z,8.90
2017-10-30T16:22:44.370Z,8.90
2017-10-30T16:25:11.889Z,8.80
2017-10-30T16:27:39.440Z,8.80
2017-10-30T16:30:07.006Z,8.70
2017-10-30T16:32:34.564Z,8.70
2017-10-30T16:35:02.091Z,8.60
2017-10-30T16:37:30.364Z,8.60
2017-10-30T16:39:58.679Z,8.50
2017-10-30T16:42:26.204Z,8.50
2017-10-30T16:44:53.801Z,8.40
2017-10-30T16:47:21.325Z,8.40
2017-10-30T16:49:49.602Z,8.20
2017-10-30T16:52:17.917Z,8.20
2017-10-30T16:54:45.446Z,8.20
2017-10-30T16:57:14.565Z,8.10
2017-10-30T16:59:42.075Z,8.10
2017-10-30T17:02:09.595Z,8.00
2017-10-30T17:04:37.128Z,7.90
2017-10-30T17:07:05.425Z,7.80
2017-10-30T17:09:32.977Z,7.80
2017-10-30T17:12:00.489Z,7.80
2017-10-30T17:14:28.033Z,7.70
2017-10-30T17:16:55.572Z,7.70
2017-10-30T17:19:23.183Z,7.70
2017-10-30T17:21:50.835Z,7.60
2017-10-30T17:24:18.349Z,7.60
2017-10-30T17:26:45.861Z,7.50
2017-10-30T17:29:13.402Z,7.50
2017-10-30T17:31:40.934Z,7.40
2017-10-30T17:34:08.496Z,7.40
2017-10-30T17:36:36.016Z,7.30
2017-10-30T17:39:03.536Z,7.30
2017-10-30T17:41:31.090Z,7.30
2017-10-30T17:43:58.616Z,7.30
2017-10-30T17:46:26.188Z,7.20
2017-10-30T17:48:53.736Z,7.10
2017-10-30T17:51:22.015Z,7.00
2017-10-30T17:53:55.659Z,7.00
2017-10-30T17:56:23.179Z,7.00
2017-10-30T17:58:50.732Z,7.00
2017-10-30T18:01:19.008Z,6.90
2017-10-30T18:03:47.282Z,6.90
2017-10-30T18:06:15.606Z,6.80
2017-10-30T18:08:43.142Z,6.80
2017-10-30T18:11:11.599Z,6.80
2017-10-30T18:13:39.330Z,6.80
2017-10-30T18:16:07.014Z,6.70
2017-10-30T18:18:36.629Z,6.70
2017-10-30T18:21:04.285Z,6.60
2017-10-30T18:23:32.085Z,6.60
2017-10-30T18:25:59.784Z,6.50
2017-10-30T18:28:29.327Z,6.50
2017-10-30T18:30:58.056Z,6.50
2017-10-30T18:33:25.964Z,6.40
2017-10-30T18:35:53.627Z,6.40
2017-10-30T18:38:22.210Z,6.30
2017-10-30T18:40:49.808Z,6.30
2017-10-30T18:43:18.187Z,6.30
2017-10-30T18:45:46.521Z,6.20
2017-10-30T18:48:14.163Z,6.20
2017-10-30T18:50:42.504Z,6.20
2017-10-30T18:53:10.854Z,6.20
2017-10-30T18:55:38.482Z,6.20
2017-10-30T18:58:06.159Z,6.10
2017-10-30T19:00:34.236Z,6.10
2017-10-30T19:03:03.425Z,6.00
2017-10-30T19:05:32.445Z,6.00
2017-10-30T19:08:01.560Z,6.00
2017-10-30T19:10:29.645Z,6.00
2017-10-30T19:12:57.967Z,6.00
2017-10-30T19:15:26.204Z,6.00
2017-10-30T19:17:54.471Z,5.90
2017-10-30T19:20:22.163Z,5.90
2017-10-30T19:22:50.054Z,5.90
2017-10-30T19:25:18.189Z,5.90
2017-10-30T19:27:45.771Z,5.90
2017-10-30T19:30:13.559Z,5.90
2017-10-30T19:32:41.207Z,5.80
2017-10-30T19:35:08.890Z,5.80
2017-10-30T19:37:36.823Z,5.80
2017-10-30T19:40:04.439Z,5.80
2017-10-30T19:42:32.153Z,5.80
2017-10-30T19:45:00.779Z,5.80
2017-10-30T19:47:28.991Z,5.90
2017-10-30T19:49:57.563Z,5.90
2017-10-30T19:52:25.184Z,5.90
2017-10-30T19:54:52.827Z,6.00
2017-10-30T19:57:20.491Z,6.00
2017-10-30T19:59:48.129Z,6.10
2017-10-30T20:02:15.771Z,6.20
2017-10-30T20:04:43.413Z,6.30
2017-10-30T20:07:31.829Z,6.30
2017-10-30T20:10:05.561Z,6.40
2017-10-30T20:12:34.050Z,6.40
2017-10-30T20:15:01.752Z,6.50
2017-10-30T20:17:30.709Z,6.50
2017-10-30T20:20:00.457Z,6.60
2017-10-30T20:22:28.997Z,6.60
2017-10-30T20:24:57.158Z,6.70
2017-10-30T20:27:25.282Z,6.70
2017-10-30T20:29:53.569Z,6.80
2017-10-30T20:32:22.459Z,6.90
2017-10-30T20:34:55.517Z,7.00
2017-10-30T20:37:36.825Z,6.90
2017-10-30T20:40:04.432Z,7.00
2017-10-30T20:42:32.013Z,7.00
2017-10-30T20:44:59.647Z,7.00
2017-10-30T20:47:27.258Z,7.00
2017-10-30T20:49:55.738Z,7.10
2017-10-30T20:52:23.467Z,7.10
2017-10-30T20:54:51.078Z,7.10
2017-10-30T20:57:18.706Z,7.10
2017-10-30T20:59:46.547Z,7.10
2017-10-30T21:02:18.992Z,7.10
2017-10-30T21:04:50.881Z,7.10
2017-10-30T21:07:23.998Z,7.10
2017-10-30T21:10:23.496Z,7.00
2017-10-30T21:13:16.128Z,7.00
2017-10-30T21:18:37.566Z,7.10
2017-10-30T21:21:05.123Z,7.10
2017-10-30T21:23:32.672Z,7.10
2017-10-30T21:26:01.025Z,7.00
2017-10-30T21:28:28.551Z,7.00
2017-10-30T21:30:56.152Z,7.00
2017-10-30T21:33:23.772Z,6.90
2017-10-30T21:35:51.371Z,6.90
2017-10-30T21:38:18.893Z,6.90
2017-10-30T21:40:46.480Z,6.90
2017-10-30T21:43:14.870Z,6.90
2017-10-30T21:45:42.563Z,6.90
2017-10-30T21:48:10.209Z,6.90
2017-10-30T21:50:38.634Z,7.00
2017-10-30T21:53:06.288Z,7.00
2017-10-30T21:55:35.151Z,7.10
2017-10-30T21:58:02.902Z,7.10
2017-10-30T22:00:31.296Z,7.10
2017-10-30T22:02:59.575Z,7.10
2017-10-30T22:05:27.904Z,7.10
2017-10-30T22:07:55.444Z,7.10
2017-10-30T22:10:22.957Z,7.10
2017-10-30T22:12:50.532Z,7.10
2017-10-30T22:15:18.052Z,7.10
2017-10-30T22:17:49.251Z,7.10
2017-10-30T22:20:17.542Z,7.00
2017-10-30T22:22:45.069Z,7.00
2017-10-30T22:25:12.654Z,7.00
2017-10-30T22:27:40.958Z,7.00
2017-10-30T22:30:08.505Z,7.00
2017-10-30T22:32:36.035Z,7.00
2017-10-30T22:35:03.621Z,7.00
2017-10-30T22:37:31.154Z,7.10
2017-10-30T22:39:58.675Z,7.10
2017-10-30T22:42:26.217Z,7.10
2017-10-30T22:44:53.750Z,7.00
2017-10-30T22:47:22.050Z,7.00
2017-10-30T22:49:49.563Z,7.00
2017-10-30T22:52:17.085Z,7.00
2017-10-30T22:54:44.734Z,7.00
2017-10-30T22:57:12.265Z,7.00
2017-10-30T22:59:40.601Z,7.00
2017-10-30T23:02:08.123Z,7.00
2017-10-30T23:04:35.666Z,7.00
2017-10-30T23:07:03.168Z,7.10
2017-10-30T23:09:30.699Z,7.10
2017-10-30T23:11:58.265Z,7.10
2017-10-30T23:14:25.782Z,7.20
2017-10-30T23:16:53.319Z,7.10
2017-10-30T23:19:20.851Z,7.20
2017-10-30T23:21:48.437Z,7.20
2017-10-30T23:24:15.952Z,7.20
2017-10-30T23:26:44.241Z,7.30
2017-10-30T23:29:11.797Z,7.20
2017-10-30T23:31:39.344Z,7.30
2017-10-30T23:34:07.643Z,7.40
2017-10-30T23:36:35.231Z,7.30
2017-10-30T23:39:02.825Z,7.30
2017-10-30T23:41:30.327Z,7.40
2017-10-30T23:43:57.837Z,7.40
2017-10-30T23:46:25.415Z,7.40
2017-10-30T23:48:53.709Z,7.40
2017-10-30T23:51:22.027Z,7.40
2017-10-30T23:53:49.542Z,7.40
2017-10-30T23:56:17.116Z,7.40
2017-10-30T23:58:44.640Z,7.50
